<?xml version="1.0" encoding="UTF-8" standalone="no" ?>
<gpx xmlns="http://www.topografix.com/GPX/1/1" xmlns:xsi="http://www.w3.org/2001/XMLSchema-instance" xsi:schemaLocation="http://www.topografix.com/GPX/1/1 http://www.topografix.com/GPX/1/1/gpx.xsd" version="1.1" creator="VisuGPX - https://www.visugpx.com">
  <metadata>
    <name>Balade</name>
    <desc><![CDATA[essai de transfer de tracé en itinéraire]]></desc>
  </metadata>
  <trk>
    <name><![CDATA[Tracé actuel: 01 AVR 2013 05:51]]></name>
    <trkseg>
      <trkpt lat="49.07501" lon="7.13555">
        <ele>239.51</ele>
        <time>2013-04-01T03:51:29Z</time>
      </trkpt>
      <trkpt lat="49.07502" lon="7.13553">
        <ele>239.02</ele>
        <time>2013-04-01T03:51:30Z</time>
      </trkpt>
      <trkpt lat="49.0753" lon="7.13543">
        <ele>237.1</ele>
        <time>2013-04-01T03:51:58Z</time>
      </trkpt>
      <trkpt lat="49.07539" lon="7.13543">
        <ele>233.74</ele>
        <time>2013-04-01T03:52:06Z</time>
      </trkpt>
      <trkpt lat="49.07542" lon="7.13545">
        <ele>230.37</ele>
        <time>2013-04-01T03:52:10Z</time>
      </trkpt>
      <trkpt lat="49.07544" lon="7.13546">
        <ele>229.41</ele>
        <time>2013-04-01T03:52:12Z</time>
      </trkpt>
      <trkpt lat="49.07548" lon="7.13548">
        <ele>226.05</ele>
        <time>2013-04-01T03:52:16Z</time>
      </trkpt>
      <trkpt lat="49.07553" lon="7.13552">
        <ele>222.68</ele>
        <time>2013-04-01T03:52:21Z</time>
      </trkpt>
      <trkpt lat="49.07554" lon="7.13553">
        <ele>222.68</ele>
        <time>2013-04-01T03:52:22Z</time>
      </trkpt>
      <trkpt lat="49.07562" lon="7.13558">
        <ele>219.32</ele>
        <time>2013-04-01T03:52:30Z</time>
      </trkpt>
      <trkpt lat="49.07575" lon="7.13568">
        <ele>215.95</ele>
        <time>2013-04-01T03:52:42Z</time>
      </trkpt>
      <trkpt lat="49.076" lon="7.13583">
        <ele>213.07</ele>
        <time>2013-04-01T03:53:03Z</time>
      </trkpt>
      <trkpt lat="49.07606" lon="7.13587">
        <ele>211.63</ele>
        <time>2013-04-01T03:53:22Z</time>
      </trkpt>
      <trkpt lat="49.07617" lon="7.13592">
        <ele>211.15</ele>
        <time>2013-04-01T03:53:43Z</time>
      </trkpt>
      <trkpt lat="49.0762" lon="7.13593">
        <ele>211.63</ele>
        <time>2013-04-01T03:54:01Z</time>
      </trkpt>
      <trkpt lat="49.07628" lon="7.13599">
        <ele>211.15</ele>
        <time>2013-04-01T03:54:33Z</time>
      </trkpt>
      <trkpt lat="49.07653" lon="7.13615">
        <ele>210.67</ele>
        <time>2013-04-01T03:54:57Z</time>
      </trkpt>
      <trkpt lat="49.07661" lon="7.13614">
        <ele>210.67</ele>
        <time>2013-04-01T03:55:19Z</time>
      </trkpt>
      <trkpt lat="49.07661" lon="7.13614">
        <ele>210.67</ele>
        <time>2013-04-01T03:55:35Z</time>
      </trkpt>
      <trkpt lat="49.07685" lon="7.13622">
        <ele>209.22</ele>
        <time>2013-04-01T03:55:56Z</time>
      </trkpt>
      <trkpt lat="49.07718" lon="7.13626">
        <ele>208.74</ele>
        <time>2013-04-01T03:56:24Z</time>
      </trkpt>
      <trkpt lat="49.07737" lon="7.13617">
        <ele>208.74</ele>
        <time>2013-04-01T03:56:46Z</time>
      </trkpt>
      <trkpt lat="49.07743" lon="7.13617">
        <ele>208.26</ele>
        <time>2013-04-01T03:56:52Z</time>
      </trkpt>
      <trkpt lat="49.07771" lon="7.13598">
        <ele>208.74</ele>
        <time>2013-04-01T03:57:19Z</time>
      </trkpt>
      <trkpt lat="49.07787" lon="7.1359">
        <ele>208.74</ele>
        <time>2013-04-01T03:57:40Z</time>
      </trkpt>
      <trkpt lat="49.07801" lon="7.13584">
        <ele>208.74</ele>
        <time>2013-04-01T03:58:02Z</time>
      </trkpt>
      <trkpt lat="49.0782" lon="7.13573">
        <ele>208.26</ele>
        <time>2013-04-01T03:58:22Z</time>
      </trkpt>
      <trkpt lat="49.07853" lon="7.1356">
        <ele>207.78</ele>
        <time>2013-04-01T03:58:49Z</time>
      </trkpt>
      <trkpt lat="49.07892" lon="7.13552">
        <ele>207.78</ele>
        <time>2013-04-01T03:59:19Z</time>
      </trkpt>
      <trkpt lat="49.07897" lon="7.13548">
        <ele>207.3</ele>
        <time>2013-04-01T03:59:41Z</time>
      </trkpt>
      <trkpt lat="49.07911" lon="7.13546">
        <ele>207.3</ele>
        <time>2013-04-01T04:00:00Z</time>
      </trkpt>
      <trkpt lat="49.07924" lon="7.13536">
        <ele>206.82</ele>
        <time>2013-04-01T04:00:14Z</time>
      </trkpt>
      <trkpt lat="49.07923" lon="7.13529">
        <ele>206.82</ele>
        <time>2013-04-01T04:00:19Z</time>
      </trkpt>
      <trkpt lat="49.07925" lon="7.13508">
        <ele>206.82</ele>
        <time>2013-04-01T04:00:36Z</time>
      </trkpt>
      <trkpt lat="49.07925" lon="7.13476">
        <ele>208.26</ele>
        <time>2013-04-01T04:00:52Z</time>
      </trkpt>
      <trkpt lat="49.07929" lon="7.13457">
        <ele>209.7</ele>
        <time>2013-04-01T04:01:04Z</time>
      </trkpt>
      <trkpt lat="49.07953" lon="7.13426">
        <ele>211.15</ele>
        <time>2013-04-01T04:01:30Z</time>
      </trkpt>
      <trkpt lat="49.07967" lon="7.13403">
        <ele>213.55</ele>
        <time>2013-04-01T04:01:50Z</time>
      </trkpt>
      <trkpt lat="49.07976" lon="7.13384">
        <ele>215.47</ele>
        <time>2013-04-01T04:02:05Z</time>
      </trkpt>
      <trkpt lat="49.07992" lon="7.13352">
        <ele>217.88</ele>
        <time>2013-04-01T04:02:29Z</time>
      </trkpt>
      <trkpt lat="49.07993" lon="7.1335">
        <ele>217.88</ele>
        <time>2013-04-01T04:02:30Z</time>
      </trkpt>
      <trkpt lat="49.08002" lon="7.13344">
        <ele>218.84</ele>
        <time>2013-04-01T04:02:50Z</time>
      </trkpt>
      <trkpt lat="49.08035" lon="7.13323">
        <ele>218.36</ele>
        <time>2013-04-01T04:03:19Z</time>
      </trkpt>
      <trkpt lat="49.08061" lon="7.13308">
        <ele>218.84</ele>
        <time>2013-04-01T04:03:41Z</time>
      </trkpt>
      <trkpt lat="49.08095" lon="7.13292">
        <ele>219.32</ele>
        <time>2013-04-01T04:04:07Z</time>
      </trkpt>
      <trkpt lat="49.08128" lon="7.13276">
        <ele>220.28</ele>
        <time>2013-04-01T04:04:37Z</time>
      </trkpt>
      <trkpt lat="49.08145" lon="7.13266">
        <ele>219.32</ele>
        <time>2013-04-01T04:05:05Z</time>
      </trkpt>
      <trkpt lat="49.08157" lon="7.13262">
        <ele>219.32</ele>
        <time>2013-04-01T04:05:27Z</time>
      </trkpt>
      <trkpt lat="49.08193" lon="7.13251">
        <ele>218.36</ele>
        <time>2013-04-01T04:05:54Z</time>
      </trkpt>
      <trkpt lat="49.08218" lon="7.13234">
        <ele>217.4</ele>
        <time>2013-04-01T04:06:18Z</time>
      </trkpt>
      <trkpt lat="49.0826" lon="7.13217">
        <ele>218.36</ele>
        <time>2013-04-01T04:06:48Z</time>
      </trkpt>
      <trkpt lat="49.08299" lon="7.13197">
        <ele>219.32</ele>
        <time>2013-04-01T04:07:19Z</time>
      </trkpt>
      <trkpt lat="49.0834" lon="7.13175">
        <ele>219.32</ele>
        <time>2013-04-01T04:07:50Z</time>
      </trkpt>
      <trkpt lat="49.08379" lon="7.13153">
        <ele>219.8</ele>
        <time>2013-04-01T04:08:19Z</time>
      </trkpt>
      <trkpt lat="49.08415" lon="7.13125">
        <ele>220.28</ele>
        <time>2013-04-01T04:08:48Z</time>
      </trkpt>
      <trkpt lat="49.08448" lon="7.13096">
        <ele>222.68</ele>
        <time>2013-04-01T04:09:17Z</time>
      </trkpt>
      <trkpt lat="49.08479" lon="7.13057">
        <ele>225.09</ele>
        <time>2013-04-01T04:09:48Z</time>
      </trkpt>
      <trkpt lat="49.08507" lon="7.13016">
        <ele>227.49</ele>
        <time>2013-04-01T04:10:19Z</time>
      </trkpt>
      <trkpt lat="49.08518" lon="7.12981">
        <ele>227.97</ele>
        <time>2013-04-01T04:10:39Z</time>
      </trkpt>
      <trkpt lat="49.08496" lon="7.12958">
        <ele>230.37</ele>
        <time>2013-04-01T04:11:02Z</time>
      </trkpt>
      <trkpt lat="49.08479" lon="7.12946">
        <ele>231.33</ele>
        <time>2013-04-01T04:11:21Z</time>
      </trkpt>
      <trkpt lat="49.08444" lon="7.12924">
        <ele>233.74</ele>
        <time>2013-04-01T04:11:50Z</time>
      </trkpt>
      <trkpt lat="49.08409" lon="7.12902">
        <ele>235.66</ele>
        <time>2013-04-01T04:12:20Z</time>
      </trkpt>
      <trkpt lat="49.08373" lon="7.12881">
        <ele>237.58</ele>
        <time>2013-04-01T04:12:49Z</time>
      </trkpt>
      <trkpt lat="49.08333" lon="7.12857">
        <ele>239.02</ele>
        <time>2013-04-01T04:13:22Z</time>
      </trkpt>
      <trkpt lat="49.08296" lon="7.1284">
        <ele>240.47</ele>
        <time>2013-04-01T04:13:51Z</time>
      </trkpt>
      <trkpt lat="49.08255" lon="7.12821">
        <ele>241.43</ele>
        <time>2013-04-01T04:14:23Z</time>
      </trkpt>
      <trkpt lat="49.08248" lon="7.12821">
        <ele>241.91</ele>
        <time>2013-04-01T04:14:28Z</time>
      </trkpt>
      <trkpt lat="49.08243" lon="7.12818">
        <ele>242.39</ele>
        <time>2013-04-01T04:14:32Z</time>
      </trkpt>
      <trkpt lat="49.08209" lon="7.12813">
        <ele>243.83</ele>
        <time>2013-04-01T04:15:00Z</time>
      </trkpt>
      <trkpt lat="49.08196" lon="7.12857">
        <ele>243.35</ele>
        <time>2013-04-01T04:15:24Z</time>
      </trkpt>
      <trkpt lat="49.08179" lon="7.12912">
        <ele>241.43</ele>
        <time>2013-04-01T04:15:53Z</time>
      </trkpt>
      <trkpt lat="49.08166" lon="7.12954">
        <ele>240.95</ele>
        <time>2013-04-01T04:16:18Z</time>
      </trkpt>
      <trkpt lat="49.0814" lon="7.12997">
        <ele>239.99</ele>
        <time>2013-04-01T04:16:45Z</time>
      </trkpt>
      <trkpt lat="49.08114" lon="7.13042">
        <ele>239.99</ele>
        <time>2013-04-01T04:17:12Z</time>
      </trkpt>
      <trkpt lat="49.08089" lon="7.13079">
        <ele>240.47</ele>
        <time>2013-04-01T04:17:39Z</time>
      </trkpt>
      <trkpt lat="49.08062" lon="7.13074">
        <ele>242.87</ele>
        <time>2013-04-01T04:18:01Z</time>
      </trkpt>
      <trkpt lat="49.08028" lon="7.13093">
        <ele>243.35</ele>
        <time>2013-04-01T04:18:29Z</time>
      </trkpt>
      <trkpt lat="49.07987" lon="7.13123">
        <ele>242.39</ele>
        <time>2013-04-01T04:19:01Z</time>
      </trkpt>
      <trkpt lat="49.07952" lon="7.1315">
        <ele>240.95</ele>
        <time>2013-04-01T04:19:29Z</time>
      </trkpt>
      <trkpt lat="49.07919" lon="7.13174">
        <ele>239.02</ele>
        <time>2013-04-01T04:19:55Z</time>
      </trkpt>
      <trkpt lat="49.07881" lon="7.13188">
        <ele>237.1</ele>
        <time>2013-04-01T04:20:23Z</time>
      </trkpt>
      <trkpt lat="49.07855" lon="7.13158">
        <ele>238.54</ele>
        <time>2013-04-01T04:20:49Z</time>
      </trkpt>
      <trkpt lat="49.07828" lon="7.1316">
        <ele>239.51</ele>
        <time>2013-04-01T04:21:10Z</time>
      </trkpt>
      <trkpt lat="49.07823" lon="7.1316">
        <ele>239.51</ele>
        <time>2013-04-01T04:21:14Z</time>
      </trkpt>
      <trkpt lat="49.07791" lon="7.13176">
        <ele>240.47</ele>
        <time>2013-04-01T04:21:40Z</time>
      </trkpt>
      <trkpt lat="49.07775" lon="7.13187">
        <ele>239.99</ele>
        <time>2013-04-01T04:21:54Z</time>
      </trkpt>
      <trkpt lat="49.07768" lon="7.1319">
        <ele>239.99</ele>
        <time>2013-04-01T04:22:00Z</time>
      </trkpt>
      <trkpt lat="49.07748" lon="7.13198">
        <ele>239.02</ele>
        <time>2013-04-01T04:22:16Z</time>
      </trkpt>
      <trkpt lat="49.07742" lon="7.13199">
        <ele>239.02</ele>
        <time>2013-04-01T04:22:21Z</time>
      </trkpt>
      <trkpt lat="49.07703" lon="7.1321">
        <ele>238.54</ele>
        <time>2013-04-01T04:22:50Z</time>
      </trkpt>
      <trkpt lat="49.07661" lon="7.13221">
        <ele>238.06</ele>
        <time>2013-04-01T04:23:21Z</time>
      </trkpt>
      <trkpt lat="49.07645" lon="7.13227">
        <ele>237.1</ele>
        <time>2013-04-01T04:23:44Z</time>
      </trkpt>
      <trkpt lat="49.07645" lon="7.13259">
        <ele>236.14</ele>
        <time>2013-04-01T04:24:10Z</time>
      </trkpt>
      <trkpt lat="49.07645" lon="7.13293">
        <ele>234.7</ele>
        <time>2013-04-01T04:24:36Z</time>
      </trkpt>
      <trkpt lat="49.07646" lon="7.13351">
        <ele>231.81</ele>
        <time>2013-04-01T04:25:04Z</time>
      </trkpt>
      <trkpt lat="49.0765" lon="7.13401">
        <ele>228.45</ele>
        <time>2013-04-01T04:25:29Z</time>
      </trkpt>
      <trkpt lat="49.07641" lon="7.13447">
        <ele>227.01</ele>
        <time>2013-04-01T04:25:52Z</time>
      </trkpt>
      <trkpt lat="49.07608" lon="7.13463">
        <ele>225.09</ele>
        <time>2013-04-01T04:26:17Z</time>
      </trkpt>
      <trkpt lat="49.07574" lon="7.13474">
        <ele>223.16</ele>
        <time>2013-04-01T04:26:44Z</time>
      </trkpt>
      <trkpt lat="49.07587" lon="7.1352">
        <ele>221.72</ele>
        <time>2013-04-01T04:27:13Z</time>
      </trkpt>
      <trkpt lat="49.07595" lon="7.13524">
        <ele>221.24</ele>
        <time>2013-04-01T04:27:19Z</time>
      </trkpt>
      <trkpt lat="49.07619" lon="7.13523">
        <ele>219.8</ele>
        <time>2013-04-01T04:27:38Z</time>
      </trkpt>
      <trkpt lat="49.0765" lon="7.13523">
        <ele>217.4</ele>
        <time>2013-04-01T04:28:01Z</time>
      </trkpt>
      <trkpt lat="49.07654" lon="7.13529">
        <ele>217.4</ele>
        <time>2013-04-01T04:28:19Z</time>
      </trkpt>
      <trkpt lat="49.07664" lon="7.13575">
        <ele>214.03</ele>
        <time>2013-04-01T04:28:44Z</time>
      </trkpt>
      <trkpt lat="49.07665" lon="7.13592">
        <ele>213.07</ele>
        <time>2013-04-01T04:28:59Z</time>
      </trkpt>
      <trkpt lat="49.07663" lon="7.13611">
        <ele>212.11</ele>
        <time>2013-04-01T04:29:08Z</time>
      </trkpt>
      <trkpt lat="49.07631" lon="7.13607">
        <ele>213.07</ele>
        <time>2013-04-01T04:29:31Z</time>
      </trkpt>
      <trkpt lat="49.07604" lon="7.13589">
        <ele>213.55</ele>
        <time>2013-04-01T04:29:54Z</time>
      </trkpt>
      <trkpt lat="49.07569" lon="7.13569">
        <ele>213.55</ele>
        <time>2013-04-01T04:30:20Z</time>
      </trkpt>
      <trkpt lat="49.07534" lon="7.13545">
        <ele>215.47</ele>
        <time>2013-04-01T04:30:50Z</time>
      </trkpt>
      <trkpt lat="49.07504" lon="7.13543">
        <ele>219.32</ele>
        <time>2013-04-01T04:31:17Z</time>
      </trkpt>
      <trkpt lat="49.07495" lon="7.13547">
        <ele>219.32</ele>
        <time>2013-04-01T04:31:41Z</time>
      </trkpt>
      <trkpt lat="49.07492" lon="7.13549">
        <ele>219.32</ele>
        <time>2013-04-01T04:31:54Z</time>
      </trkpt>
    </trkseg>
  </trk>
</gpx>